createdAt,value
2022-09-12T00:00:27.301Z,15.93
2022-09-12T00:01:15.846Z,15.94
2022-09-12T00:01:47.886Z,15.92
2022-09-12T00:02:19.787Z,15.98
2022-09-12T00:02:55.330Z,15.94
2022-09-12T00:03:27.181Z,15.97
2022-09-12T00:04:02.048Z,16.01
2022-09-12T00:04:34.015Z,15.96
2022-09-12T00:05:07.436Z,16.05
2022-09-12T00:05:44.339Z,16.05
2022-09-12T00:06:23.096Z,15.90
2022-09-12T00:06:55.225Z,15.95
2022-09-12T00:07:27.093Z,15.97
2022-09-12T00:08:00.244Z,16.07
2022-09-12T00:08:32.088Z,16.13
2022-09-12T00:09:13.072Z,16.10
2022-09-12T00:09:44.995Z,15.97
2022-09-12T00:10:17.439Z,16.00
2022-09-12T00:10:49.257Z,16.06
2022-09-12T00:11:21.770Z,16.01
2022-09-12T00:11:53.599Z,16.09
2022-09-12T00:12:25.518Z,16.12
2022-09-12T00:12:57.413Z,16.13
2022-09-12T00:13:29.261Z,16.11
2022-09-12T00:14:02.161Z,16.13
2022-09-12T00:14:34.033Z,16.14
2022-09-12T00:15:06.885Z,16.04
2022-09-12T00:15:43.564Z,15.97
2022-09-12T00:16:18.003Z,15.95
2022-09-12T00:16:50.245Z,15.96
2022-09-12T00:17:22.183Z,15.98
2022-09-12T00:17:54.009Z,15.96
2022-09-12T00:18:25.874Z,16.02
2022-09-12T00:18:58.067Z,15.97
2022-09-12T00:19:30.628Z,15.89
2022-09-12T00:20:04.017Z,15.98
2022-09-12T00:20:35.938Z,16.09
2022-09-12T00:21:07.818Z,16.08
2022-09-12T00:21:40.645Z,16.07
2022-09-12T00:22:12.784Z,16.14
2022-09-12T00:22:44.601Z,16.13
2022-09-12T00:23:16.501Z,16.03
2022-09-12T00:23:49.446Z,15.97
2022-09-12T00:24:21.431Z,16.07
2022-09-12T00:24:53.389Z,16.16
2022-09-12T00:25:25.280Z,16.16
2022-09-12T00:25:57.167Z,16.17
2022-09-12T00:26:29.205Z,16.18
2022-09-12T00:27:01.113Z,16.17
2022-09-12T00:27:33.258Z,16.20
2022-09-12T00:28:05.449Z,16.17
2022-09-12T00:28:39.368Z,16.12
2022-09-12T00:29:20.090Z,16.08
2022-09-12T00:29:51.871Z,16.13
2022-09-12T00:30:23.995Z,16.00
2022-09-12T00:30:55.840Z,15.94
2022-09-12T00:31:28.654Z,15.97
2022-09-12T00:32:00.582Z,15.96
2022-09-12T00:32:32.609Z,15.97
2022-09-12T00:33:04.704Z,16.02
2022-09-12T00:33:37.053Z,15.95
2022-09-12T00:34:10.042Z,15.92
2022-09-12T00:34:41.931Z,15.99
2022-09-12T00:35:13.746Z,16.01
2022-09-12T00:35:52.935Z,16.04
2022-09-12T00:36:26.067Z,16.10
2022-09-12T00:36:57.886Z,16.07
2022-09-12T00:37:29.706Z,15.99
2022-09-12T00:38:01.566Z,15.92
2022-09-12T00:38:34.008Z,15.94
2022-09-12T00:39:06.385Z,15.86
2022-09-12T00:39:38.348Z,15.84
2022-09-12T00:40:11.064Z,15.92
2022-09-12T00:40:43.546Z,15.96
2022-09-12T00:41:21.005Z,15.95
2022-09-12T00:41:52.956Z,15.90
2022-09-12T00:42:24.822Z,15.95
2022-09-12T00:42:56.685Z,15.95
2022-09-12T00:43:39.056Z,15.90
2022-09-12T00:44:23.048Z,15.96
2022-09-12T00:44:54.880Z,15.98
2022-09-12T00:45:29.408Z,15.95
2022-09-12T00:46:08.022Z,15.94
2022-09-12T00:47:16.191Z,15.92
2022-09-12T00:47:48.060Z,15.96
2022-09-12T00:48:32.306Z,16.08
2022-09-12T00:49:13.606Z,16.00
2022-09-12T00:49:54.865Z,16.06
2022-09-12T00:50:28.088Z,16.05
2022-09-12T00:51:00.957Z,16.05
2022-09-12T00:51:36.130Z,15.95
2022-09-12T00:52:16.826Z,15.99
2022-09-12T00:53:08.001Z,15.86
2022-09-12T00:53:43.755Z,15.87
2022-09-12T00:54:21.193Z,15.70
2022-09-12T00:54:56.524Z,15.67
2022-09-12T00:55:44.621Z,15.79
2022-09-12T00:56:18.872Z,15.85
2022-09-12T00:56:53.341Z,15.77
2022-09-12T00:57:31.255Z,15.86
2022-09-12T00:58:14.837Z,15.88
2022-09-12T00:59:11.641Z,15.86
2022-09-12T00:59:54.133Z,15.89
2022-09-12T01:00:28.395Z,15.85
2022-09-12T01:01:01.000Z,15.83
2022-09-12T01:01:34.124Z,15.81
2022-09-12T01:02:07.271Z,15.79
2022-09-12T01:02:39.492Z,15.67
2022-09-12T01:03:14.777Z,15.73
2022-09-12T01:03:47.530Z,15.79
2022-09-12T01:04:22.479Z,15.85
2022-09-12T01:04:54.507Z,15.84
2022-09-12T01:05:29.257Z,15.88
2022-09-12T01:06:23.829Z,15.87
2022-09-12T01:06:58.510Z,15.92
2022-09-12T01:07:30.653Z,15.81
2022-09-12T01:08:04.489Z,15.81
2022-09-12T01:08:37.498Z,15.79
2022-09-12T01:09:15.964Z,15.80
2022-09-12T01:09:48.160Z,15.82
2022-09-12T01:10:20.717Z,15.83
2022-09-12T01:10:52.975Z,15.84
2022-09-12T01:11:25.641Z,15.85
2022-09-12T01:11:57.984Z,15.83
2022-09-12T01:12:29.814Z,15.85
2022-09-12T01:13:05.031Z,15.91
2022-09-12T01:13:37.334Z,15.73
2022-09-12T01:14:09.414Z,15.76
2022-09-12T01:14:41.442Z,15.81
2022-09-12T01:15:13.815Z,15.82
2022-09-12T01:15:45.916Z,15.79
2022-09-12T01:16:18.383Z,15.84
2022-09-12T01:16:51.176Z,15.92
2022-09-12T01:17:27.784Z,15.95
2022-09-12T01:17:59.634Z,15.88
2022-09-12T01:18:55.638Z,15.86
2022-09-12T01:19:27.407Z,15.70
2022-09-12T01:20:27.159Z,15.71
2022-09-12T01:21:31.404Z,15.68
2022-09-12T01:22:21.440Z,15.74
2022-09-12T01:23:11.055Z,15.72
2022-09-12T01:24:09.656Z,15.70
2022-09-12T01:24:59.836Z,15.77
2022-09-12T01:25:40.457Z,15.83
2022-09-12T01:26:49.983Z,15.88
2022-09-12T01:27:32.507Z,15.75
2022-09-12T01:28:46.057Z,15.66
2022-09-12T01:29:57.864Z,15.59
2022-09-12T01:31:04.860Z,15.73
2022-09-12T01:32:02.520Z,15.84
2022-09-12T01:32:52.769Z,15.83
2022-09-12T01:33:52.240Z,15.81
2022-09-12T01:34:46.801Z,15.75
2022-09-12T01:35:27.993Z,15.77
2022-09-12T01:36:08.816Z,15.81
2022-09-12T01:36:59.838Z,15.72
2022-09-12T01:37:42.949Z,15.84
2022-09-12T01:38:46.856Z,15.71
2022-09-12T01:39:57.510Z,15.65
2022-09-12T01:40:57.408Z,15.72
2022-09-12T01:41:54.582Z,15.70
2022-09-12T01:42:47.053Z,15.63
2022-09-12T01:43:25.163Z,15.64
2022-09-12T01:44:09.570Z,15.63
2022-09-12T01:44:55.208Z,15.51
2022-09-12T01:45:39.483Z,15.51
2022-09-12T01:46:33.226Z,15.56
2022-09-12T01:47:16.990Z,15.62
2022-09-12T01:48:29.823Z,15.68
2022-09-12T01:49:17.980Z,15.64
2022-09-12T01:50:08.025Z,15.53
2022-09-12T01:50:54.468Z,15.58
2022-09-12T01:51:33.643Z,15.59
2022-09-12T01:52:23.135Z,15.58
2022-09-12T01:53:01.646Z,15.46
2022-09-12T01:53:47.579Z,15.31
2022-09-12T01:54:26.488Z,15.41
2022-09-12T01:55:09.709Z,15.45
2022-09-12T01:55:46.423Z,15.46
2022-09-12T01:56:25.966Z,15.39
2022-09-12T01:57:02.438Z,15.32
2022-09-12T01:57:42.147Z,15.35
2022-09-12T01:58:19.346Z,15.27
2022-09-12T01:59:03.983Z,15.30
2022-09-12T01:59:43.257Z,15.33
2022-09-12T02:00:15.783Z,15.34
2022-09-12T02:01:01.534Z,15.31
2022-09-12T02:01:36.776Z,15.32
2022-09-12T02:02:15.139Z,15.42
2022-09-12T02:03:09.499Z,15.45
2022-09-12T02:03:54.264Z,15.45
2022-09-12T02:04:34.069Z,15.46
2022-09-12T02:05:17.591Z,15.49
2022-09-12T02:05:57.981Z,15.40
2022-09-12T02:06:36.645Z,15.37
2022-09-12T02:07:13.811Z,15.46
2022-09-12T02:07:53.841Z,15.44
2022-09-12T02:08:33.812Z,15.42
2022-09-12T02:09:15.922Z,15.40
2022-09-12T02:10:04.222Z,15.26
2022-09-12T02:10:47.723Z,15.36
2022-09-12T02:11:21.329Z,15.41
2022-09-12T02:11:58.736Z,15.43
2022-09-12T02:12:39.610Z,15.41
2022-09-12T02:13:21.992Z,15.44
2022-09-12T02:13:58.861Z,15.32
2022-09-12T02:14:36.763Z,15.39
2022-09-12T02:15:11.970Z,15.31
2022-09-12T02:15:49.914Z,15.34
2022-09-12T02:16:40.335Z,15.34
2022-09-12T02:17:18.826Z,15.24
2022-09-12T02:17:53.169Z,15.26
2022-09-12T02:18:28.337Z,15.27
2022-09-12T02:19:07.516Z,15.34
2022-09-12T02:19:51.842Z,15.39
2022-09-12T02:20:47.369Z,15.33
2022-09-12T02:21:22.764Z,15.40
2022-09-12T02:21:58.366Z,15.40
2022-09-12T02:22:31.679Z,15.40
2022-09-12T02:23:08.465Z,15.30
2022-09-12T02:23:48.131Z,15.29
2022-09-12T02:24:23.124Z,15.29
2022-09-12T02:24:59.335Z,15.26
2022-09-12T02:25:31.162Z,15.27
2022-09-12T02:26:20.546Z,15.32
2022-09-12T02:27:00.182Z,15.33
2022-09-12T02:27:44.479Z,15.33
2022-09-12T02:28:23.623Z,15.31
2022-09-12T02:28:56.801Z,15.29
2022-09-12T02:29:28.873Z,15.32
2022-09-12T02:30:00.746Z,15.30
2022-09-12T02:30:40.437Z,15.20
2022-09-12T02:31:12.266Z,15.13
2022-09-12T02:31:54.116Z,15.21
2022-09-12T02:32:28.726Z,15.09
2022-09-12T02:33:02.730Z,15.11
2022-09-12T02:33:58.617Z,15.03
2022-09-12T02:34:59.655Z,15.02
2022-09-12T02:35:43.848Z,14.98
2022-09-12T02:36:24.107Z,15.09
2022-09-12T02:37:06.311Z,15.03
2022-09-12T02:37:56.507Z,15.02
2022-09-12T02:38:32.892Z,15.03
2022-09-12T02:39:04.731Z,15.04
2022-09-12T02:39:37.057Z,15.09
2022-09-12T02:40:09.966Z,15.10
2022-09-12T02:40:42.060Z,15.10
2022-09-12T02:41:17.628Z,15.12
2022-09-12T02:41:55.795Z,15.15
2022-09-12T02:42:27.653Z,15.22
2022-09-12T02:43:00.701Z,15.17
2022-09-12T02:43:33.291Z,15.18
2022-09-12T02:44:06.109Z,15.17
2022-09-12T02:44:38.063Z,15.14
2022-09-12T02:45:12.452Z,15.17
2022-09-12T02:45:44.822Z,15.10
2022-09-12T02:46:33.328Z,15.11
2022-09-12T02:47:11.409Z,15.00
2022-09-12T02:48:13.453Z,15.05
2022-09-12T02:48:45.916Z,15.14
2022-09-12T02:49:17.997Z,15.16
2022-09-12T02:49:50.077Z,15.15
2022-09-12T02:50:22.187Z,15.16
2022-09-12T02:50:54.534Z,15.05
2022-09-12T02:51:27.226Z,15.00
2022-09-12T02:52:00.890Z,14.97
2022-09-12T02:52:32.997Z,15.04
2022-09-12T02:53:07.123Z,15.09
2022-09-12T02:53:39.647Z,15.08
2022-09-12T02:54:13.837Z,15.06
2022-09-12T02:54:46.294Z,15.08
2022-09-12T02:55:18.186Z,15.11
2022-09-12T02:55:51.505Z,15.05
2022-09-12T02:56:30.293Z,15.01
2022-09-12T02:57:02.232Z,15.03
2022-09-12T02:57:34.084Z,15.13
2022-09-12T02:58:11.969Z,15.21
2022-09-12T02:58:44.421Z,15.25
2022-09-12T02:59:20.060Z,15.16
2022-09-12T02:59:56.089Z,15.18
2022-09-12T03:00:35.432Z,15.22
2022-09-12T03:01:26.998Z,15.19
2022-09-12T03:02:14.032Z,15.11
2022-09-12T03:03:04.564Z,15.01
2022-09-12T03:04:04.404Z,15.02
2022-09-12T03:04:57.236Z,15.14
2022-09-12T03:05:59.694Z,15.16
2022-09-12T03:06:56.229Z,15.32
2022-09-12T03:07:31.115Z,15.33
2022-09-12T03:08:17.986Z,15.23
2022-09-12T03:09:00.390Z,15.24
2022-09-12T03:10:00.048Z,15.21
2022-09-12T03:11:10.047Z,15.11
2022-09-12T03:12:00.618Z,15.12
2022-09-12T03:12:38.016Z,15.14
2022-09-12T03:13:18.674Z,15.10
2022-09-12T03:14:08.990Z,15.08
2022-09-12T03:15:10.904Z,15.07
2022-09-12T03:15:59.464Z,14.92
2022-09-12T03:16:57.335Z,14.89
2022-09-12T03:17:41.929Z,14.99
2022-09-12T03:18:35.596Z,14.92
2022-09-12T03:19:16.932Z,14.90
2022-09-12T03:20:01.053Z,14.87
2022-09-12T03:20:44.815Z,14.89
2022-09-12T03:21:33.491Z,14.94
2022-09-12T03:22:19.064Z,14.96
2022-09-12T03:23:02.623Z,14.92
2022-09-12T03:23:52.469Z,14.94
2022-09-12T03:24:38.540Z,14.90
2022-09-12T03:25:16.571Z,15.00
2022-09-12T03:26:03.923Z,14.96
2022-09-12T03:26:48.202Z,15.01
2022-09-12T03:27:31.588Z,15.00
2022-09-12T03:28:15.695Z,14.88
2022-09-12T03:28:49.521Z,14.92
2022-09-12T03:29:24.088Z,14.75
2022-09-12T03:29:56.472Z,14.69
2022-09-12T03:30:28.836Z,14.69
2022-09-12T03:31:00.889Z,14.44
2022-09-12T03:31:33.082Z,14.43
2022-09-12T03:32:05.263Z,14.47
2022-09-12T03:32:46.938Z,14.41
2022-09-12T03:33:21.873Z,14.37
2022-09-12T03:33:53.685Z,14.42
2022-09-12T03:34:27.593Z,14.50
2022-09-12T03:34:59.423Z,14.50
2022-09-12T03:35:31.285Z,14.60
2022-09-12T03:36:03.364Z,14.65
2022-09-12T03:36:35.209Z,14.64
2022-09-12T03:37:07.531Z,14.48
2022-09-12T03:37:39.546Z,14.45
2022-09-12T03:38:11.415Z,14.54
2022-09-12T03:38:43.242Z,14.61
2022-09-12T03:39:15.701Z,14.61
2022-09-12T03:39:47.559Z,14.65
2022-09-12T03:40:19.819Z,14.65
2022-09-12T03:40:54.856Z,14.68
2022-09-12T03:41:26.879Z,14.55
2022-09-12T03:41:58.885Z,14.59
2022-09-12T03:42:31.048Z,14.67
2022-09-12T03:43:03.913Z,14.73
2022-09-12T03:43:35.811Z,14.71
2022-09-12T03:44:07.648Z,14.64
2022-09-12T03:44:39.486Z,14.66
2022-09-12T03:45:11.924Z,14.65
2022-09-12T03:45:43.757Z,14.54
2022-09-12T03:46:15.593Z,14.57
2022-09-12T03:46:47.702Z,14.56
2022-09-12T03:47:19.525Z,14.61
2022-09-12T03:47:51.760Z,14.65
2022-09-12T03:48:23.600Z,14.59
2022-09-12T03:48:55.412Z,14.58
2022-09-12T03:49:27.246Z,14.60
2022-09-12T03:49:59.088Z,14.58
2022-09-12T03:50:30.951Z,14.64
2022-09-12T03:51:05.164Z,14.64
2022-09-12T03:51:37.901Z,14.59
2022-09-12T03:52:09.749Z,14.44
2022-09-12T03:52:41.604Z,14.36
2022-09-12T03:53:17.021Z,14.44
2022-09-12T03:53:49.354Z,14.46
2022-09-12T03:54:21.239Z,14.42
2022-09-12T03:54:53.168Z,14.39
2022-09-12T03:55:26.687Z,14.31
2022-09-12T03:55:59.071Z,14.28
2022-09-12T03:56:31.223Z,14.24
2022-09-12T03:57:03.144Z,14.31
2022-09-12T03:57:35.024Z,14.21
2022-09-12T03:58:07.319Z,14.22
2022-09-12T03:58:39.584Z,14.33
2022-09-12T03:59:11.479Z,14.37
2022-09-12T03:59:43.330Z,14.39
2022-09-12T04:00:19.541Z,14.41
2022-09-12T04:00:52.062Z,14.39
2022-09-12T04:01:24.275Z,14.22
2022-09-12T04:01:56.205Z,14.15
2022-09-12T04:02:29.046Z,14.13
2022-09-12T04:03:00.952Z,14.19
2022-09-12T04:03:32.787Z,14.23
2022-09-12T04:04:04.670Z,14.20
2022-09-12T04:04:36.578Z,14.23
2022-09-12T04:05:08.807Z,14.16
2022-09-12T04:05:40.696Z,14.08
2022-09-12T04:06:15.532Z,13.92
2022-09-12T04:06:47.355Z,13.95
2022-09-12T04:07:19.512Z,13.98
2022-09-12T04:07:51.723Z,13.98
2022-09-12T04:08:23.552Z,14.03
2022-09-12T04:08:55.856Z,14.16
2022-09-12T04:09:27.692Z,14.12
2022-09-12T04:09:59.512Z,14.05
2022-09-12T04:10:32.200Z,14.05
2022-09-12T04:11:06.094Z,14.01
2022-09-12T04:11:38.305Z,14.11
2022-09-12T04:12:10.355Z,14.12
2022-09-12T04:12:42.265Z,14.18
2022-09-12T04:13:14.175Z,14.22
2022-09-12T04:13:46.645Z,14.15
2022-09-12T04:14:18.748Z,14.07
2022-09-12T04:14:50.663Z,14.15
2022-09-12T04:15:22.561Z,14.25
2022-09-12T04:16:01.343Z,14.25
2022-09-12T04:16:33.289Z,14.29
2022-09-12T04:17:05.724Z,14.21
2022-09-12T04:17:37.580Z,14.07
2022-09-12T04:18:09.478Z,13.80
2022-09-12T04:18:41.393Z,13.73
2022-09-12T04:19:13.417Z,13.72
2022-09-12T04:19:45.256Z,13.77
2022-09-12T04:20:17.078Z,13.89
2022-09-12T04:20:49.041Z,13.88
2022-09-12T04:21:23.938Z,13.86
2022-09-12T04:21:55.819Z,13.92
2022-09-12T04:22:29.864Z,14.04
2022-09-12T04:23:01.724Z,14.10
2022-09-12T04:23:33.818Z,14.06
2022-09-12T04:24:05.972Z,14.08
2022-09-12T04:24:37.781Z,13.99
2022-09-12T04:25:09.919Z,13.73
2022-09-12T04:25:41.880Z,13.61
2022-09-12T04:26:14.835Z,13.75
2022-09-12T04:26:46.937Z,13.79
2022-09-12T04:27:18.763Z,13.79
2022-09-12T04:27:51.031Z,13.85
2022-09-12T04:28:23.023Z,13.85
2022-09-12T04:28:55.897Z,13.78
2022-09-12T04:29:27.980Z,13.82
2022-09-12T04:30:02.206Z,13.76
2022-09-12T04:30:34.703Z,13.73
2022-09-12T04:31:09.280Z,13.59
2022-09-12T04:31:42.095Z,13.54
2022-09-12T04:32:15.128Z,13.49
2022-09-12T04:32:46.999Z,13.48
2022-09-12T04:33:19.196Z,13.57
2022-09-12T04:33:56.424Z,13.66
2022-09-12T04:34:31.292Z,13.61
2022-09-12T04:35:04.195Z,13.63
2022-09-12T04:35:36.366Z,13.56
2022-09-12T04:36:17.456Z,13.50
2022-09-12T04:36:49.301Z,13.54
2022-09-12T04:37:21.637Z,13.62
2022-09-12T04:37:53.688Z,13.61
2022-09-12T04:38:26.562Z,13.52
2022-09-12T04:39:00.083Z,13.47
2022-09-12T04:39:31.987Z,13.54
2022-09-12T04:40:03.965Z,13.63
2022-09-12T04:40:35.857Z,13.72
2022-09-12T04:41:15.569Z,13.75
2022-09-12T04:41:47.402Z,13.72
2022-09-12T04:42:19.230Z,13.73
2022-09-12T04:42:51.091Z,13.79
2022-09-12T04:43:22.921Z,13.76
2022-09-12T04:44:03.591Z,13.72
2022-09-12T04:44:35.454Z,13.85
2022-09-12T04:45:08.042Z,13.84
2022-09-12T04:45:39.906Z,13.85
2022-09-12T04:46:13.255Z,13.94
2022-09-12T04:46:47.143Z,13.93
2022-09-12T04:47:19.181Z,13.99
2022-09-12T04:47:51.564Z,14.07
2022-09-12T04:48:23.437Z,14.13
2022-09-12T04:48:57.007Z,14.17
2022-09-12T04:49:29.142Z,14.06
2022-09-12T04:50:01.087Z,14.01
2022-09-12T04:50:33.137Z,13.95
2022-09-12T04:51:10.450Z,14.00
2022-09-12T04:51:44.155Z,13.97
2022-09-12T04:52:15.992Z,13.90
2022-09-12T04:52:54.669Z,13.98
2022-09-12T04:53:26.524Z,14.10
2022-09-12T04:54:00.927Z,14.18
2022-09-12T04:54:32.936Z,14.08
2022-09-12T04:55:05.149Z,14.15
2022-09-12T04:55:36.984Z,14.11
2022-09-12T04:56:10.652Z,14.12
2022-09-12T04:56:44.693Z,14.14
2022-09-12T04:57:16.638Z,14.21
2022-09-12T04:57:49.073Z,14.26
2022-09-12T04:58:20.929Z,14.35
2022-09-12T04:58:53.129Z,14.34
2022-09-12T04:59:25.394Z,14.37
2022-09-12T04:59:57.236Z,14.38
2022-09-12T05:00:29.138Z,14.46
2022-09-12T05:01:11.969Z,14.39
2022-09-12T05:01:43.915Z,14.51
2022-09-12T05:02:16.345Z,14.40
2022-09-12T05:02:48.319Z,14.44
2022-09-12T05:03:20.212Z,14.51
2022-09-12T05:03:53.147Z,14.59
2022-09-12T05:04:25.255Z,14.65
2022-09-12T05:04:57.152Z,14.63
2022-09-12T05:05:28.988Z,14.59
2022-09-12T05:06:04.767Z,14.68
2022-09-12T05:06:38.275Z,14.76
2022-09-12T05:07:10.311Z,14.55
2022-09-12T05:07:42.182Z,14.53
2022-09-12T05:08:14.085Z,14.56
2022-09-12T05:08:46.369Z,14.59
2022-09-12T05:09:18.308Z,14.70
2022-09-12T05:09:50.488Z,14.77
2022-09-12T05:10:23.854Z,14.78
2022-09-12T05:10:55.977Z,14.81
2022-09-12T05:11:59.631Z,14.80
2022-09-12T05:12:25.340Z,14.82
2022-09-12T05:12:57.200Z,14.92
2022-09-12T05:13:29.153Z,14.99
2022-09-12T05:14:01.208Z,15.04
2022-09-12T05:14:34.140Z,15.02
2022-09-12T05:15:07.091Z,14.90
2022-09-12T05:15:39.993Z,14.99
2022-09-12T05:16:15.351Z,15.09
2022-09-12T05:16:49.538Z,15.05
2022-09-12T05:17:21.745Z,15.19
2022-09-12T05:17:53.582Z,15.31
2022-09-12T05:18:26.663Z,15.43
2022-09-12T05:18:59.401Z,15.42
2022-09-12T05:19:33.787Z,15.47
2022-09-12T05:20:05.999Z,15.51
2022-09-12T05:20:38.204Z,15.51
2022-09-12T05:21:12.381Z,15.62
2022-09-12T05:21:44.264Z,15.72
2022-09-12T05:22:16.129Z,15.83
2022-09-12T05:22:47.966Z,15.72
2022-09-12T05:23:19.998Z,15.76
2022-09-12T05:23:56.750Z,15.79
2022-09-12T05:24:28.873Z,15.88
2022-09-12T05:25:00.774Z,16.15
2022-09-12T05:25:32.587Z,16.22
2022-09-12T05:26:06.827Z,16.23
2022-09-12T05:26:38.842Z,16.33
2022-09-12T05:27:10.663Z,16.35
2022-09-12T05:27:42.503Z,16.35
2022-09-12T05:28:14.362Z,16.19
2022-09-12T05:28:48.165Z,16.11
2022-09-12T05:29:20.075Z,16.16
2022-09-12T05:29:51.892Z,16.28
2022-09-12T05:30:23.779Z,16.40
2022-09-12T05:31:12.668Z,16.48
2022-09-12T05:31:45.000Z,16.56
2022-09-12T05:32:16.902Z,16.63
2022-09-12T05:32:49.686Z,16.63
2022-09-12T05:33:25.006Z,16.68
2022-09-12T05:33:57.704Z,16.78
2022-09-12T05:34:29.563Z,16.80
2022-09-12T05:35:01.523Z,16.89
2022-09-12T05:35:33.364Z,17.06
2022-09-12T05:36:07.621Z,17.15
2022-09-12T05:36:39.788Z,17.19
2022-09-12T05:37:13.025Z,17.22
2022-09-12T05:37:44.859Z,17.36
2022-09-12T05:38:16.692Z,17.38
2022-09-12T05:38:48.734Z,17.42
2022-09-12T05:39:20.663Z,17.47
2022-09-12T05:39:52.953Z,17.48
2022-09-12T05:40:24.903Z,17.30
2022-09-12T05:41:08.182Z,17.22
2022-09-12T05:41:40.162Z,17.28
2022-09-12T05:42:12.271Z,17.41
2022-09-12T05:42:44.118Z,17.50
2022-09-12T05:43:16.131Z,17.61
2022-09-12T05:43:52.525Z,17.62
2022-09-12T05:44:24.944Z,17.67
2022-09-12T05:44:57.362Z,17.71
2022-09-12T05:45:30.047Z,17.80
2022-09-12T05:46:04.265Z,17.83
2022-09-12T05:46:38.730Z,17.70
2022-09-12T05:47:12.994Z,17.76
2022-09-12T05:47:47.140Z,17.90
2022-09-12T05:48:18.994Z,18.06
2022-09-12T05:48:55.644Z,17.99
2022-09-12T05:49:28.087Z,18.02
2022-09-12T05:49:59.934Z,17.95
2022-09-12T05:50:32.445Z,18.02
2022-09-12T05:51:26.589Z,18.03
2022-09-12T05:51:58.437Z,18.03
2022-09-12T05:52:31.099Z,18.00
2022-09-12T05:53:03.425Z,18.12
2022-09-12T05:53:37.462Z,18.26
2022-09-12T05:54:12.002Z,18.20
2022-09-12T05:54:43.937Z,18.25
2022-09-12T05:55:16.616Z,18.26
2022-09-12T05:55:49.377Z,18.19
2022-09-12T05:56:23.865Z,18.14
2022-09-12T05:56:56.751Z,18.14
2022-09-12T05:57:29.294Z,18.17
2022-09-12T05:58:01.129Z,18.22
2022-09-12T05:58:34.856Z,18.39
2022-09-12T05:59:12.109Z,18.28
2022-09-12T05:59:44.029Z,18.44
2022-09-12T06:00:16.646Z,18.40
2022-09-12T06:00:49.624Z,18.34
2022-09-12T06:01:21.902Z,18.53
2022-09-12T06:01:54.007Z,18.54
2022-09-12T06:02:26.555Z,18.52
2022-09-12T06:02:58.487Z,18.48
2022-09-12T06:03:30.394Z,18.60
2022-09-12T06:04:05.586Z,18.67
2022-09-12T06:04:37.427Z,18.82
2022-09-12T06:05:09.477Z,18.86
2022-09-12T06:05:41.366Z,18.85
2022-09-12T06:06:15.329Z,18.73
2022-09-12T06:06:47.226Z,18.80
2022-09-12T06:07:19.138Z,18.87
2022-09-12T06:07:51.705Z,18.86
2022-09-12T06:08:23.713Z,18.92
2022-09-12T06:09:01.460Z,18.84
2022-09-12T06:09:33.330Z,18.97
2022-09-12T06:10:05.527Z,18.92
2022-09-12T06:10:37.407Z,18.94
2022-09-12T06:11:11.699Z,18.82
2022-09-12T06:11:45.359Z,18.67
2022-09-12T06:12:17.189Z,18.78
2022-09-12T06:12:49.302Z,18.92
2022-09-12T06:13:21.188Z,19.01
2022-09-12T06:13:53.575Z,18.92
2022-09-12T06:14:25.465Z,19.06
2022-09-12T06:14:57.351Z,18.96
2022-09-12T06:15:29.151Z,19.09
2022-09-12T06:16:08.938Z,19.04
2022-09-12T06:16:41.187Z,19.17
2022-09-12T06:17:13.384Z,19.20
2022-09-12T06:17:49.476Z,19.12
2022-09-12T06:18:23.139Z,19.09
2022-09-12T06:19:00.253Z,19.00
2022-09-12T06:19:32.188Z,19.08
2022-09-12T06:20:04.227Z,19.19
2022-09-12T06:20:36.933Z,19.27
2022-09-12T06:21:10.902Z,19.41
2022-09-12T06:21:42.870Z,19.50
2022-09-12T06:22:14.990Z,19.65
2022-09-12T06:22:47.986Z,19.73
2022-09-12T06:23:19.800Z,19.62
2022-09-12T06:23:51.652Z,19.37
2022-09-12T06:24:23.543Z,19.31
2022-09-12T06:24:57.930Z,19.41
2022-09-12T06:25:30.017Z,19.60
2022-09-12T06:26:02.477Z,19.71
2022-09-12T06:26:34.569Z,19.61
2022-09-12T06:27:06.418Z,19.55
2022-09-12T06:27:38.564Z,19.62
2022-09-12T06:28:10.407Z,19.71
2022-09-12T06:28:44.992Z,19.63
2022-09-12T06:29:16.891Z,19.59
2022-09-12T06:29:48.763Z,19.67
2022-09-12T06:30:25.298Z,19.82
2022-09-12T06:31:09.786Z,19.86
2022-09-12T06:31:43.224Z,19.78
2022-09-12T06:32:15.059Z,19.63
2022-09-12T06:32:47.193Z,19.52
2022-09-12T06:33:19.575Z,19.48
2022-09-12T06:33:53.699Z,19.49
2022-09-12T06:34:28.119Z,19.57
2022-09-12T06:34:59.951Z,19.52
2022-09-12T06:35:35.411Z,19.71
2022-09-12T06:36:12.489Z,19.75
2022-09-12T06:36:47.225Z,19.78
2022-09-12T06:37:19.893Z,19.88
2022-09-12T06:37:52.327Z,19.82
2022-09-12T06:38:24.148Z,19.90
2022-09-12T06:38:58.643Z,20.09
2022-09-12T06:39:31.613Z,20.14
2022-09-12T06:40:03.688Z,20.19
2022-09-12T06:40:41.358Z,20.18
2022-09-12T06:41:13.741Z,20.17
2022-09-12T06:41:46.437Z,20.24
2022-09-12T06:42:20.033Z,20.34
2022-09-12T06:42:52.558Z,20.21
2022-09-12T06:43:25.848Z,20.15
2022-09-12T06:43:59.091Z,20.34
2022-09-12T06:44:31.657Z,20.24
2022-09-12T06:45:03.736Z,20.17
2022-09-12T06:45:35.750Z,20.01
2022-09-12T06:46:08.756Z,20.05
2022-09-12T06:46:40.611Z,20.21
2022-09-12T06:47:12.956Z,20.20
2022-09-12T06:47:44.794Z,20.46
2022-09-12T06:48:17.274Z,20.62
2022-09-12T06:48:49.318Z,20.70
2022-09-12T06:49:21.304Z,20.71
2022-09-12T06:49:53.125Z,20.86
2022-09-12T06:50:25.096Z,20.72
2022-09-12T06:51:02.148Z,20.66
2022-09-12T06:51:36.273Z,20.73
2022-09-12T06:52:08.138Z,20.86
2022-09-12T06:52:40.053Z,20.92
2022-09-12T06:53:11.896Z,20.81
2022-09-12T06:53:45.517Z,20.89
2022-09-12T06:54:17.527Z,20.94
2022-09-12T06:54:49.358Z,21.03
2022-09-12T06:55:24.637Z,21.14
2022-09-12T06:56:06.765Z,21.21
2022-09-12T06:56:38.916Z,20.92
2022-09-12T06:57:10.723Z,21.07
2022-09-12T06:57:42.562Z,21.23
2022-09-12T06:58:14.626Z,21.13
2022-09-12T06:58:48.267Z,21.15
2022-09-12T06:59:20.143Z,21.23
2022-09-12T06:59:51.956Z,21.25
2022-09-12T07:00:23.995Z,21.26
2022-09-12T07:01:13.198Z,21.25
2022-09-12T07:01:45.145Z,21.45
2022-09-12T07:02:17.226Z,21.19
2022-09-12T07:02:49.153Z,21.31
2022-09-12T07:03:21.001Z,21.48
2022-09-12T07:03:55.906Z,21.34
2022-09-12T07:04:28.241Z,21.20
2022-09-12T07:05:00.614Z,21.41
2022-09-12T07:05:34.076Z,21.43
2022-09-12T07:06:08.697Z,21.53
2022-09-12T07:06:42.929Z,21.62
2022-09-12T07:07:14.783Z,21.71
2022-09-12T07:07:46.638Z,21.75
2022-09-12T07:08:18.542Z,21.85
2022-09-12T07:08:50.536Z,21.90
2022-09-12T07:09:22.703Z,21.90
2022-09-12T07:09:54.532Z,21.97
2022-09-12T07:10:27.495Z,22.03
2022-09-12T07:11:08.257Z,21.85
2022-09-12T07:11:40.782Z,21.75
2022-09-12T07:12:12.665Z,21.60
2022-09-12T07:12:44.507Z,21.58
2022-09-12T07:13:16.330Z,21.66
2022-09-12T07:13:51.880Z,21.81
2022-09-12T07:14:26.020Z,21.87
2022-09-12T07:14:57.895Z,21.82
2022-09-12T07:15:29.799Z,21.95
2022-09-12T07:16:03.019Z,21.90
2022-09-12T07:16:36.745Z,22.06
2022-09-12T07:17:08.855Z,22.18
2022-09-12T07:17:40.772Z,22.24
2022-09-12T07:18:14.116Z,22.20
2022-09-12T07:18:51.209Z,22.01
2022-09-12T07:19:24.626Z,22.21
2022-09-12T07:19:56.502Z,22.20
2022-09-12T07:20:28.415Z,22.16
2022-09-12T07:21:03.776Z,22.05
2022-09-12T07:21:39.811Z,21.95
2022-09-12T07:22:12.337Z,22.16
2022-09-12T07:22:44.156Z,22.35
2022-09-12T07:23:15.958Z,22.47
2022-09-12T07:23:48.054Z,22.38
2022-09-12T07:24:20.057Z,22.36
2022-09-12T07:24:54.107Z,22.51
2022-09-12T07:25:26.315Z,22.37
2022-09-12T07:25:59.892Z,22.36
2022-09-12T07:26:32.686Z,22.41
2022-09-12T07:27:04.586Z,22.41
2022-09-12T07:27:37.801Z,22.31
2022-09-12T07:28:09.683Z,22.39
2022-09-12T07:28:43.072Z,22.34
2022-09-12T07:30:09.042Z,22.23
2022-09-12T07:30:40.915Z,22.20
2022-09-12T07:31:18.292Z,22.25
2022-09-12T07:31:50.161Z,22.42
2022-09-12T07:32:23.083Z,22.55
2022-09-12T07:32:55.074Z,22.66
2022-09-12T07:33:28.511Z,22.70
2022-09-12T07:34:00.402Z,22.77
2022-09-12T07:34:32.594Z,22.84
2022-09-12T07:35:04.832Z,22.87
2022-09-12T07:35:37.072Z,22.73
2022-09-12T07:36:12.185Z,22.59
2022-09-12T07:36:44.067Z,22.53
2022-09-12T07:37:16.034Z,22.66
2022-09-12T07:37:47.859Z,22.88
2022-09-12T07:38:20.182Z,22.73
2022-09-12T07:38:58.850Z,22.68
2022-09-12T07:39:30.706Z,22.85
2022-09-12T07:40:03.178Z,23.01
2022-09-12T07:40:35.104Z,23.07
2022-09-12T07:41:15.707Z,23.10
2022-09-12T07:41:47.586Z,22.70